createdAt,value
2023-03-20T00:02:26.378Z,90.33
2023-03-20T00:04:58.001Z,89.77
2023-03-20T00:07:25.723Z,90.94
2023-03-20T00:09:52.626Z,89.56
2023-03-20T00:12:27.577Z,90.26
2023-03-20T00:15:00.461Z,90.47
2023-03-20T00:17:27.306Z,90.79
2023-03-20T00:19:56.598Z,89.67
2023-03-20T00:22:23.564Z,88.21
2023-03-20T00:24:50.604Z,89.56
2023-03-20T00:27:18.264Z,88.79
2023-03-20T00:29:45.936Z,90.03
2023-03-20T00:32:14.052Z,91.28
2023-03-20T00:34:41.013Z,92.14
2023-03-20T00:37:09.288Z,92.73
2023-03-20T00:39:36.573Z,92.01
2023-03-20T00:42:08.924Z,92.16
2023-03-20T00:44:53.295Z,91.04
2023-03-20T00:47:24.284Z,91.69
2023-03-20T00:49:54.223Z,92.99
2023-03-20T00:52:24.665Z,92.02
2023-03-20T00:54:51.959Z,91.21
2023-03-20T00:57:30.496Z,91.41
2023-03-20T01:00:05.342Z,90.67
2023-03-20T01:02:32.868Z,90.36
2023-03-20T01:05:00.317Z,89.90
2023-03-20T01:07:32.023Z,90.97
2023-03-20T01:10:01.205Z,91.76
2023-03-20T01:12:28.323Z,91.20
2023-03-20T01:14:59.173Z,91.24
2023-03-20T01:17:28.665Z,90.32
2023-03-20T01:19:58.103Z,90.72
2023-03-20T01:22:27.475Z,90.43
2023-03-20T01:24:54.401Z,89.34
2023-03-20T01:27:23.867Z,90.53
2023-03-20T01:29:50.713Z,92.16
2023-03-20T01:32:20.499Z,92.62
2023-03-20T01:34:47.816Z,93.13
2023-03-20T01:37:22.988Z,92.58
2023-03-20T01:39:49.974Z,92.37
2023-03-20T01:42:17.146Z,92.75
2023-03-20T01:44:46.868Z,93.58
2023-03-20T01:47:21.477Z,93.88
2023-03-20T01:50:26.227Z,92.88
2023-03-20T01:53:10.651Z,91.25
2023-03-20T01:55:42.640Z,91.72
2023-03-20T01:58:22.729Z,92.22
2023-03-20T02:00:53.563Z,93.18
2023-03-20T02:03:22.054Z,93.49
2023-03-20T02:05:51.698Z,92.86
2023-03-20T02:08:27.675Z,91.62
2023-03-20T02:10:56.425Z,92.27
2023-03-20T02:13:24.455Z,92.66
2023-03-20T02:16:10.713Z,93.48
2023-03-20T02:18:40.203Z,94.24
2023-03-20T02:21:44.037Z,94.69
2023-03-20T02:24:29.782Z,94.29
2023-03-20T02:27:09.489Z,92.31
2023-03-20T02:30:28.442Z,93.25
2023-03-20T02:33:16.214Z,91.96
2023-03-20T02:36:07.176Z,91.69
2023-03-20T02:39:20.901Z,91.43
2023-03-20T02:41:53.061Z,91.66
2023-03-20T02:44:47.340Z,92.05
2023-03-20T02:47:37.447Z,92.62
2023-03-20T02:50:39.808Z,91.50
2023-03-20T02:53:38.231Z,91.49
2023-03-20T02:56:31.844Z,90.82
2023-03-20T02:59:07.857Z,91.39
2023-03-20T03:01:45.442Z,91.17
2023-03-20T03:04:18.505Z,91.16
2023-03-20T03:06:49.273Z,91.66
2023-03-20T03:09:34.449Z,91.74
2023-03-20T03:12:22.011Z,91.47
2023-03-20T03:15:02.560Z,91.46
2023-03-20T03:17:34.871Z,91.66
2023-03-20T03:20:25.146Z,91.26
2023-03-20T03:22:52.110Z,91.07
2023-03-20T03:25:22.811Z,90.28
2023-03-20T03:28:25.396Z,91.23
2023-03-20T03:30:56.689Z,91.59
2023-03-20T03:33:32.104Z,92.05
2023-03-20T03:36:25.499Z,92.05
2023-03-20T03:39:06.283Z,94.24
2023-03-20T03:41:49.653Z,93.31
2023-03-20T03:45:02.005Z,93.26
2023-03-20T03:47:39.579Z,93.19
2023-03-20T03:50:47.891Z,93.41
2023-03-20T03:53:20.560Z,92.53
2023-03-20T03:55:57.735Z,92.55
2023-03-20T03:58:49.182Z,91.21
2023-03-20T04:01:17.962Z,91.75
2023-03-20T04:03:58.050Z,91.31
2023-03-20T04:06:27.100Z,90.86
2023-03-20T04:08:58.530Z,90.73
2023-03-20T04:11:29.909Z,90.25
2023-03-20T04:13:59.294Z,89.81
2023-03-20T04:16:28.452Z,89.68
2023-03-20T04:18:57.573Z,88.20
2023-03-20T04:21:24.829Z,89.07
2023-03-20T04:23:51.970Z,89.42
2023-03-20T04:26:18.938Z,89.16
2023-03-20T04:28:45.970Z,89.57
2023-03-20T04:31:15.849Z,89.80
2023-03-20T04:33:42.716Z,90.56
2023-03-20T04:36:10.576Z,89.44
2023-03-20T04:38:37.644Z,89.83
2023-03-20T04:41:08.807Z,90.24
2023-03-20T04:43:38.207Z,90.11
2023-03-20T04:46:05.560Z,91.12
2023-03-20T04:48:32.414Z,90.54
2023-03-20T04:51:02.311Z,90.88
2023-03-20T04:53:29.169Z,89.20
2023-03-20T04:55:56.037Z,89.19
2023-03-20T04:58:23.660Z,88.72
2023-03-20T05:00:53.132Z,89.56
2023-03-20T05:03:24.035Z,89.91
2023-03-20T05:05:51.175Z,88.25
2023-03-20T05:08:20.570Z,88.77
2023-03-20T05:10:47.526Z,88.63
2023-03-20T05:13:17.448Z,85.81
2023-03-20T05:15:44.380Z,85.81
2023-03-20T05:18:13.623Z,86.43
2023-03-20T05:20:40.511Z,86.15
2023-03-20T05:23:07.456Z,85.79
2023-03-20T05:25:34.768Z,86.80
2023-03-20T05:28:01.777Z,85.60
2023-03-20T05:30:31.187Z,85.65
2023-03-20T05:33:00.592Z,85.64
2023-03-20T05:35:29.559Z,85.17
2023-03-20T05:37:56.467Z,85.37
2023-03-20T05:40:26.370Z,85.32
2023-03-20T05:42:56.693Z,85.36
2023-03-20T05:45:23.557Z,85.58
2023-03-20T05:47:53.392Z,84.71
2023-03-20T05:50:21.003Z,84.85
2023-03-20T05:52:50.919Z,85.24
2023-03-20T05:55:17.933Z,83.92
2023-03-20T05:57:47.950Z,84.01
2023-03-20T06:00:18.298Z,83.27
2023-03-20T06:02:47.347Z,82.22
2023-03-20T06:05:17.681Z,80.68
2023-03-20T06:07:47.137Z,79.56
2023-03-20T06:10:16.498Z,79.69
2023-03-20T06:12:43.377Z,79.36
2023-03-20T06:15:10.785Z,78.24
2023-03-20T06:17:37.642Z,77.82
2023-03-20T06:20:05.827Z,77.47
2023-03-20T06:22:37.418Z,76.34
2023-03-20T06:25:05.661Z,75.58
2023-03-20T06:27:32.590Z,75.53
2023-03-20T06:29:59.422Z,75.35
2023-03-20T06:32:26.406Z,74.72
2023-03-20T06:34:55.482Z,75.13
2023-03-20T06:37:22.432Z,74.57
2023-03-20T06:39:49.854Z,73.73
2023-03-20T06:42:17.628Z,74.56
2023-03-20T06:44:44.939Z,74.42
2023-03-20T06:47:12.067Z,74.21
2023-03-20T06:49:39.057Z,73.76
2023-03-20T06:52:09.723Z,74.36
2023-03-20T06:54:38.712Z,75.21
2023-03-20T06:57:08.174Z,74.37
2023-03-20T06:59:35.370Z,74.53
2023-03-20T07:02:05.989Z,75.41
2023-03-20T07:04:35.193Z,75.79
2023-03-20T07:07:04.581Z,76.68
2023-03-20T07:09:31.476Z,77.31
2023-03-20T07:12:00.581Z,76.47
2023-03-20T07:14:29.668Z,77.01
2023-03-20T07:16:59.173Z,76.52
2023-03-20T07:19:26.508Z,76.51
2023-03-20T07:22:02.374Z,77.59
2023-03-20T07:24:29.365Z,77.59
2023-03-20T07:26:56.413Z,75.95
2023-03-20T07:29:25.786Z,77.49
2023-03-20T07:31:52.750Z,78.40
2023-03-20T07:34:22.382Z,77.28
2023-03-20T07:36:49.237Z,77.06
2023-03-20T07:39:16.827Z,76.97
2023-03-20T07:41:43.784Z,76.54
2023-03-20T07:44:10.646Z,76.56
2023-03-20T07:46:40.782Z,77.19
2023-03-20T07:49:07.983Z,76.78
2023-03-20T07:51:34.930Z,77.08
2023-03-20T07:54:01.867Z,76.56
2023-03-20T07:56:28.722Z,76.07
2023-03-20T07:58:58.153Z,76.17
2023-03-20T08:01:25.060Z,76.60
2023-03-20T08:03:52.093Z,74.89
2023-03-20T08:06:18.984Z,75.83
2023-03-20T08:08:45.929Z,75.42
2023-03-20T08:11:13.703Z,75.07
2023-03-20T08:13:43.664Z,76.39
2023-03-20T08:16:10.884Z,76.72
2023-03-20T08:18:40.598Z,77.45
2023-03-20T08:21:07.784Z,77.90
2023-03-20T08:23:34.693Z,79.18
2023-03-20T08:26:03.893Z,77.75
2023-03-20T08:28:46.612Z,79.68
2023-03-20T08:31:20.004Z,81.56
2023-03-20T08:33:47.398Z,81.94
2023-03-20T08:36:15.976Z,83.48
2023-03-20T08:38:43.667Z,82.82
2023-03-20T08:41:10.815Z,84.26
2023-03-20T08:43:39.927Z,84.94
2023-03-20T08:46:09.558Z,84.72
2023-03-20T08:48:36.600Z,84.41
2023-03-20T08:51:08.540Z,83.39
2023-03-20T08:53:38.636Z,82.92
2023-03-20T08:56:09.139Z,83.96
2023-03-20T08:58:36.121Z,83.58
2023-03-20T09:01:09.100Z,82.87
2023-03-20T09:03:39.192Z,81.46
2023-03-20T09:06:11.836Z,81.66
2023-03-20T09:08:41.403Z,81.12
2023-03-20T09:11:08.346Z,80.69
2023-03-20T09:13:35.940Z,79.67
2023-03-20T09:16:06.519Z,79.78
2023-03-20T09:18:36.598Z,79.13
2023-03-20T09:21:03.847Z,79.28
2023-03-20T09:23:32.162Z,78.80
2023-03-20T09:25:59.310Z,79.82
2023-03-20T09:28:27.236Z,78.93
2023-03-20T09:30:59.251Z,78.12
2023-03-20T09:33:28.810Z,77.66
2023-03-20T09:35:58.166Z,77.06
2023-03-20T09:38:25.217Z,77.62
2023-03-20T09:40:57.658Z,78.54
2023-03-20T09:44:04.644Z,78.77
2023-03-20T09:46:50.804Z,78.97
2023-03-20T09:49:25.882Z,77.56
2023-03-20T09:52:04.563Z,76.49
2023-03-20T09:54:53.718Z,76.68
2023-03-20T09:57:40.167Z,75.74
2023-03-20T10:00:20.274Z,73.41
2023-03-20T10:03:27.111Z,73.51
2023-03-20T10:06:04.962Z,73.59
2023-03-20T10:08:39.324Z,73.61
2023-03-20T10:11:31.393Z,72.39
2023-03-20T10:14:18.772Z,71.90
2023-03-20T10:17:13.229Z,70.88
2023-03-20T10:20:07.094Z,70.35
2023-03-20T10:22:46.076Z,71.65
2023-03-20T10:25:35.639Z,70.73
2023-03-20T10:28:24.912Z,71.05
2023-03-20T10:31:18.224Z,68.94
2023-03-20T10:34:24.996Z,69.63
2023-03-20T10:37:18.941Z,69.36
2023-03-20T10:40:23.699Z,69.96
2023-03-20T10:42:57.920Z,70.21
2023-03-20T10:45:41.213Z,70.26
2023-03-20T10:48:41.699Z,68.57
2023-03-20T10:51:17.690Z,69.03
2023-03-20T10:53:56.552Z,69.03
2023-03-20T10:56:59.832Z,69.11
2023-03-20T10:59:53.316Z,68.19
2023-03-20T11:02:23.381Z,67.09
2023-03-20T11:04:51.108Z,66.80
2023-03-20T11:07:37.875Z,66.10
2023-03-20T11:10:04.740Z,65.61
2023-03-20T11:12:50.472Z,65.38
2023-03-20T11:15:37.719Z,64.47
2023-03-20T11:18:07.946Z,64.29
2023-03-20T11:21:00.010Z,63.70
2023-03-20T11:23:35.449Z,62.54
2023-03-20T11:26:08.307Z,63.21
2023-03-20T11:28:38.520Z,64.13
2023-03-20T11:31:11.455Z,63.97
2023-03-20T11:33:43.629Z,64.87
2023-03-20T11:36:22.875Z,64.49
2023-03-20T11:38:51.894Z,64.32
2023-03-20T11:41:30.345Z,63.68
2023-03-20T11:43:59.754Z,64.42
2023-03-20T11:46:26.897Z,64.59
2023-03-20T11:49:21.071Z,64.77
2023-03-20T11:51:48.334Z,63.57
2023-03-20T11:54:25.043Z,63.74
2023-03-20T11:57:01.345Z,64.18
2023-03-20T11:59:36.389Z,63.51
2023-03-20T12:02:13.072Z,63.10
2023-03-20T12:04:45.701Z,62.83
2023-03-20T12:07:40.697Z,61.65
2023-03-20T12:10:15.568Z,60.92
2023-03-20T12:13:27.821Z,59.46
2023-03-20T12:16:02.573Z,59.13
2023-03-20T12:18:45.685Z,58.53
2023-03-20T12:21:18.156Z,58.69
2023-03-20T12:23:51.518Z,58.43
2023-03-20T12:26:51.536Z,58.95
2023-03-20T12:30:11.550Z,59.41
2023-03-20T12:33:08.171Z,59.28
2023-03-20T12:35:44.709Z,58.46
2023-03-20T12:38:30.534Z,59.03
2023-03-20T12:41:24.473Z,59.19
2023-03-20T12:44:18.358Z,59.31
2023-03-20T12:47:22.801Z,59.24
2023-03-20T12:50:02.476Z,59.76
2023-03-20T12:52:53.284Z,60.34
2023-03-20T12:55:52.689Z,60.29
2023-03-20T12:59:05.244Z,60.22
2023-03-20T13:01:36.972Z,61.83
2023-03-20T13:04:27.516Z,61.85
2023-03-20T13:07:01.233Z,61.03
2023-03-20T13:09:59.295Z,59.53
2023-03-20T13:12:36.531Z,59.35
2023-03-20T13:15:45.182Z,59.78
2023-03-20T13:18:49.661Z,59.59
2023-03-20T13:21:39.873Z,59.39
2023-03-20T13:24:49.332Z,59.36
2023-03-20T13:27:57.362Z,58.94
2023-03-20T13:30:42.217Z,59.12
2023-03-20T13:33:55.026Z,58.94
2023-03-20T13:37:12.376Z,59.70
2023-03-20T13:40:01.236Z,59.06
2023-03-20T13:42:40.068Z,57.98
2023-03-20T13:45:33.259Z,56.71
2023-03-20T13:48:29.065Z,56.87
2023-03-20T13:51:37.146Z,54.63
2023-03-20T13:54:32.414Z,53.63
2023-03-20T13:57:32.752Z,53.04
2023-03-20T14:00:30.920Z,52.65
2023-03-20T14:03:00.847Z,53.84
2023-03-20T14:05:28.498Z,53.47
2023-03-20T14:08:19.789Z,53.70
2023-03-20T14:10:46.874Z,52.56
2023-03-20T14:13:18.730Z,52.31
2023-03-20T14:15:57.300Z,52.74
2023-03-20T14:18:26.533Z,53.57
2023-03-20T14:21:05.952Z,53.26
2023-03-20T14:23:40.094Z,53.01
2023-03-20T14:26:25.780Z,54.14
2023-03-20T14:29:09.661Z,54.20
2023-03-20T14:31:42.277Z,54.19
2023-03-20T14:34:12.211Z,54.41
2023-03-20T14:37:03.659Z,55.02
2023-03-20T14:39:51.542Z,54.69
2023-03-20T14:42:50.135Z,54.57
2023-03-20T14:45:40.636Z,55.44
2023-03-20T14:49:03.974Z,55.48
2023-03-20T14:51:41.865Z,56.15
2023-03-20T14:54:30.037Z,56.08
2023-03-20T14:57:20.004Z,55.44
2023-03-20T14:59:50.169Z,55.26
2023-03-20T15:02:34.659Z,55.20
2023-03-20T15:05:02.248Z,55.71
2023-03-20T15:07:36.009Z,55.31
2023-03-20T15:10:05.297Z,56.06
2023-03-20T15:12:36.506Z,57.07
2023-03-20T15:15:08.252Z,57.87
2023-03-20T15:17:40.677Z,58.05
2023-03-20T15:20:30.238Z,57.06
2023-03-20T15:23:04.976Z,57.40
2023-03-20T15:25:46.885Z,56.72
2023-03-20T15:28:24.890Z,57.05
2023-03-20T15:30:56.834Z,58.20
2023-03-20T15:33:31.789Z,57.15
2023-03-20T15:36:09.392Z,56.50
2023-03-20T15:38:39.707Z,56.42
2023-03-20T15:41:34.381Z,56.17
2023-03-20T15:44:19.820Z,55.89
2023-03-20T15:47:07.496Z,56.56
2023-03-20T15:49:41.422Z,56.34
2023-03-20T15:52:36.968Z,55.86
2023-03-20T15:55:14.798Z,56.26
2023-03-20T15:57:44.975Z,55.94
2023-03-20T16:00:26.443Z,55.87
2023-03-20T16:02:53.850Z,55.96
2023-03-20T16:05:28.428Z,56.29
2023-03-20T16:07:58.109Z,56.33
2023-03-20T16:10:31.546Z,56.47
2023-03-20T16:12:59.065Z,56.50
2023-03-20T16:15:33.547Z,56.49
2023-03-20T16:18:08.348Z,56.37
2023-03-20T16:20:45.317Z,56.83
2023-03-20T16:23:30.681Z,57.46
2023-03-20T16:25:59.523Z,56.74
2023-03-20T16:28:30.456Z,56.80
2023-03-20T16:31:22.167Z,56.28
2023-03-20T16:33:49.847Z,55.89
2023-03-20T16:36:31.145Z,55.99
2023-03-20T16:39:23.001Z,55.09
2023-03-20T16:42:12.418Z,55.45
2023-03-20T16:44:42.401Z,55.09
2023-03-20T16:47:21.321Z,56.23
2023-03-20T16:50:20.236Z,56.56
2023-03-20T16:52:59.952Z,57.24
2023-03-20T16:55:39.533Z,56.28
2023-03-20T16:58:07.831Z,56.44
2023-03-20T17:00:58.997Z,57.23
2023-03-20T17:03:28.698Z,58.30
2023-03-20T17:05:58.729Z,58.58
2023-03-20T17:08:35.475Z,58.35
2023-03-20T17:11:13.747Z,57.94
2023-03-20T17:13:41.910Z,58.31
2023-03-20T17:16:19.139Z,58.98
2023-03-20T17:19:07.329Z,59.93
2023-03-20T17:21:36.714Z,60.00
2023-03-20T17:24:04.083Z,60.20
2023-03-20T17:26:31.412Z,60.70
2023-03-20T17:28:58.459Z,62.37
2023-03-20T17:31:34.960Z,60.97
2023-03-20T17:34:04.850Z,61.36
2023-03-20T17:36:36.645Z,62.52
2023-03-20T17:39:06.536Z,61.41
2023-03-20T17:41:33.463Z,62.64
2023-03-20T17:44:00.550Z,62.26
2023-03-20T17:46:30.723Z,61.65
2023-03-20T17:49:10.692Z,62.35
2023-03-20T17:51:37.670Z,62.09
2023-03-20T17:54:05.809Z,62.31
2023-03-20T17:56:33.106Z,62.37
2023-03-20T17:59:04.027Z,62.71
2023-03-20T18:01:33.411Z,61.31
2023-03-20T18:04:03.358Z,62.25
2023-03-20T18:06:36.921Z,62.58
2023-03-20T18:09:09.032Z,62.16
2023-03-20T18:11:38.531Z,62.93
2023-03-20T18:14:07.251Z,62.52
2023-03-20T18:16:36.795Z,61.78
2023-03-20T18:19:03.988Z,61.66
2023-03-20T18:21:31.244Z,62.06
2023-03-20T18:24:00.455Z,63.28
2023-03-20T18:26:27.974Z,62.71
2023-03-20T18:29:02.491Z,62.34
2023-03-20T18:31:29.634Z,62.65
2023-03-20T18:33:57.313Z,63.16
2023-03-20T18:36:28.092Z,62.54
2023-03-20T18:38:55.695Z,62.62
2023-03-20T18:41:23.548Z,63.05
2023-03-20T18:43:51.616Z,62.94
2023-03-20T18:46:22.290Z,62.51
2023-03-20T18:48:52.019Z,62.72
2023-03-20T18:51:20.890Z,63.74
2023-03-20T18:53:50.142Z,64.03
2023-03-20T18:56:25.887Z,64.49
2023-03-20T18:58:55.852Z,65.60
2023-03-20T19:01:27.205Z,64.80
2023-03-20T19:03:57.246Z,65.11
2023-03-20T19:06:24.218Z,65.64
2023-03-20T19:08:52.461Z,65.94
2023-03-20T19:11:22.293Z,65.36
2023-03-20T19:13:53.661Z,65.19
2023-03-20T19:16:26.192Z,64.99
2023-03-20T19:18:58.613Z,64.43
2023-03-20T19:21:28.927Z,64.41
2023-03-20T19:24:02.089Z,65.25
2023-03-20T19:26:33.879Z,65.38
2023-03-20T19:29:02.944Z,65.66
2023-03-20T19:31:32.025Z,67.33
2023-03-20T19:34:01.755Z,66.20
2023-03-20T19:36:36.608Z,66.13
2023-03-20T19:39:09.224Z,66.13
2023-03-20T19:41:39.222Z,65.82
2023-03-20T19:44:08.514Z,65.42
2023-03-20T19:46:40.248Z,66.10
2023-03-20T19:49:20.985Z,66.65
2023-03-20T19:51:49.163Z,66.75
2023-03-20T19:54:16.678Z,66.19
2023-03-20T19:56:46.079Z,66.19
2023-03-20T19:59:16.226Z,67.92
2023-03-20T20:01:45.382Z,67.23
2023-03-20T20:04:14.927Z,66.85
2023-03-20T20:06:42.092Z,66.06
2023-03-20T20:09:14.427Z,66.96
2023-03-20T20:11:41.339Z,68.88
2023-03-20T20:14:10.062Z,69.18
2023-03-20T20:16:40.039Z,69.16
2023-03-20T20:19:11.916Z,68.87
2023-03-20T20:24:28.324Z,69.48
2023-03-20T20:27:14.828Z,70.50
2023-03-20T20:29:49.060Z,69.92
2023-03-20T20:32:17.630Z,70.63
2023-03-20T20:38:30.619Z,69.75
2023-03-20T20:40:25.862Z,70.04
2023-03-20T20:43:01.773Z,69.98
2023-03-20T20:45:31.522Z,69.36
2023-03-20T20:48:01.738Z,70.30
2023-03-20T20:50:36.078Z,70.69
2023-03-20T20:53:06.835Z,69.83
2023-03-20T20:55:33.773Z,71.14
2023-03-20T20:58:01.372Z,69.83
2023-03-20T21:00:45.412Z,69.52
2023-03-20T21:03:14.745Z,71.74
2023-03-20T21:05:44.689Z,71.82
2023-03-20T21:08:18.428Z,72.87
2023-03-20T21:10:49.368Z,73.34
2023-03-20T21:13:16.455Z,73.89
2023-03-20T21:15:45.412Z,74.51
2023-03-20T21:18:12.431Z,73.68
2023-03-20T21:20:39.380Z,75.35
2023-03-20T21:23:06.391Z,76.14
2023-03-20T21:25:40.758Z,77.06
2023-03-20T21:28:09.543Z,78.88
2023-03-20T21:30:51.115Z,78.89
2023-03-20T21:33:28.783Z,79.60
2023-03-20T21:35:55.814Z,78.84
2023-03-20T21:41:17.286Z,77.29
2023-03-20T21:43:49.777Z,78.70
2023-03-20T21:55:16.295Z,83.55
2023-03-20T22:01:12.270Z,84.18
2023-03-20T22:03:11.468Z,84.89
2023-03-20T22:06:14.460Z,86.42
2023-03-20T22:09:33.937Z,87.35
2023-03-20T22:12:01.835Z,86.23
2023-03-20T22:20:33.265Z,89.43
2023-03-20T22:29:04.804Z,89.76
2023-03-20T22:37:40.805Z,88.50
2023-03-20T22:42:55.823Z,89.42
2023-03-20T22:45:24.094Z,88.86
2023-03-20T22:47:54.621Z,89.23
2023-03-20T22:50:21.487Z,89.76
2023-03-20T22:52:55.504Z,90.39
2023-03-20T22:55:24.867Z,92.33
2023-03-20T22:58:06.224Z,91.21
2023-03-20T23:00:35.727Z,91.25
2023-03-20T23:03:17.551Z,93.88
2023-03-20T23:05:47.213Z,95.30
2023-03-20T23:08:14.289Z,92.32
2023-03-20T23:10:50.205Z,92.28
2023-03-20T23:13:19.368Z,92.71
2023-03-20T23:15:50.771Z,92.64
2023-03-20T23:18:22.462Z,94.08
2023-03-20T23:21:03.028Z,93.96
2023-03-20T23:23:31.573Z,93.87
2023-03-20T23:26:21.083Z,93.68
2023-03-20T23:28:51.531Z,95.34
2023-03-20T23:31:22.415Z,98.71
2023-03-20T23:33:54.971Z,98.55
2023-03-20T23:36:35.245Z,97.83
2023-03-20T23:39:07.615Z,95.59
2023-03-20T23:42:06.539Z,95.85
2023-03-20T23:44:21.959Z,95.54
2023-03-20T23:46:49.151Z,96.18
2023-03-20T23:49:18.339Z,96.68
2023-03-20T23:51:45.446Z,96.16
2023-03-20T23:54:13.149Z,97.96
2023-03-20T23:56:40.363Z,99.42
